sensor_id;sensor_type;location;lat;lon;timestamp;temperature;humidity
53422;DHT22;39319;52.944;5.928;2024-01-06T00:01:42;6.30;99.90
53422;DHT22;39319;52.944;5.928;2024-01-06T00:04:07;6.60;99.90
53422;DHT22;39319;52.944;5.928;2024-01-06T00:06:33;6.20;99.90
53422;DHT22;39319;52.944;5.928;2024-01-06T00:08:59;6.20;99.90
53422;DHT22;39319;52.944;5.928;2024-01-06T00:11:24;6.20;99.90
53422;DHT22;39319;52.944;5.928;2024-01-06T00:13:50;6.20;99.90
53422;DHT22;39319;52.944;5.928;2024-01-06T00:16:20;6.20;99.90
53422;DHT22;39319;52.944;5.928;2024-01-06T00:18:46;6.30;99.90
53422;DHT22;39319;52.944;5.928;2024-01-06T00:21:12;6.20;99.90
53422;DHT22;39319;52.944;5.928;2024-01-06T00:23:41;6.30;99.90
53422;DHT22;39319;52.944;5.928;2024-01-06T00:26:07;6.10;99.90
53422;DHT22;39319;52.944;5.928;2024-01-06T00:28:34;6.20;99.90
53422;DHT22;39319;52.944;5.928;2024-01-06T00:30:59;6.10;99.90
53422;DHT22;39319;52.944;5.928;2024-01-06T00:33:25;6.40;99.90
53422;DHT22;39319;52.944;5.928;2024-01-06T00:35:51;6.10;99.90
53422;DHT22;39319;52.944;5.928;2024-01-06T00:38:16;6.00;99.90
53422;DHT22;39319;52.944;5.928;2024-01-06T00:40:42;6.10;99.90
53422;DHT22;39319;52.944;5.928;2024-01-06T00:43:08;6.00;99.90
53422;DHT22;39319;52.944;5.928;2024-01-06T00:45:34;6.00;99.90
53422;DHT22;39319;52.944;5.928;2024-01-06T00:47:59;6.10;99.90
53422;DHT22;39319;52.944;5.928;2024-01-06T00:50:25;6.00;99.90
53422;DHT22;39319;52.944;5.928;2024-01-06T00:52:53;6.10;99.90
53422;DHT22;39319;52.944;5.928;2024-01-06T00:55:19;5.80;99.90
53422;DHT22;39319;52.944;5.928;2024-01-06T00:57:45;6.10;99.90
53422;DHT22;39319;52.944;5.928;2024-01-06T01:00:12;6.10;99.90
53422;DHT22;39319;52.944;5.928;2024-01-06T01:02:38;6.10;99.90
53422;DHT22;39319;52.944;5.928;2024-01-06T01:05:04;5.80;99.90
53422;DHT22;39319;52.944;5.928;2024-01-06T01:07:30;6.10;99.90
53422;DHT22;39319;52.944;5.928;2024-01-06T01:09:56;5.90;99.90
53422;DHT22;39319;52.944;5.928;2024-01-06T01:12:23;6.00;99.90
53422;DHT22;39319;52.944;5.928;2024-01-06T01:14:49;5.80;99.90
53422;DHT22;39319;52.944;5.928;2024-01-06T01:17:16;5.80;99.90
53422;DHT22;39319;52.944;5.928;2024-01-06T01:19:42;5.90;99.90
53422;DHT22;39319;52.944;5.928;2024-01-06T01:22:07;5.80;99.90
53422;DHT22;39319;52.944;5.928;2024-01-06T01:24:33;5.90;99.90
53422;DHT22;39319;52.944;5.928;2024-01-06T01:26:59;5.90;99.90
53422;DHT22;39319;52.944;5.928;2024-01-06T01:29:25;5.80;99.90
53422;DHT22;39319;52.944;5.928;2024-01-06T01:31:53;5.90;99.90
53422;DHT22;39319;52.944;5.928;2024-01-06T01:34:19;5.80;99.90
53422;DHT22;39319;52.944;5.928;2024-01-06T01:36:45;5.70;99.90
53422;DHT22;39319;52.944;5.928;2024-01-06T01:39:10;5.70;99.90
53422;DHT22;39319;52.944;5.928;2024-01-06T01:41:36;5.70;99.90
53422;DHT22;39319;52.944;5.928;2024-01-06T01:44:02;5.70;99.90
53422;DHT22;39319;52.944;5.928;2024-01-06T01:46:29;5.70;99.90
53422;DHT22;39319;52.944;5.928;2024-01-06T01:48:56;5.80;99.90
53422;DHT22;39319;52.944;5.928;2024-01-06T01:51:26;5.80;99.90
53422;DHT22;39319;52.944;5.928;2024-01-06T01:53:52;5.70;99.90
53422;DHT22;39319;52.944;5.928;2024-01-06T01:56:19;5.80;99.90
53422;DHT22;39319;52.944;5.928;2024-01-06T01:58:46;5.70;99.90
53422;DHT22;39319;52.944;5.928;2024-01-06T02:01:12;5.70;99.90
53422;DHT22;39319;52.944;5.928;2024-01-06T02:03:38;5.60;99.90
53422;DHT22;39319;52.944;5.928;2024-01-06T02:06:06;5.70;99.90
53422;DHT22;39319;52.944;5.928;2024-01-06T02:08:32;5.60;99.90
53422;DHT22;39319;52.944;5.928;2024-01-06T02:10:58;5.80;99.90
53422;DHT22;39319;52.944;5.928;2024-01-06T02:13:23;5.50;99.90
53422;DHT22;39319;52.944;5.928;2024-01-06T02:15:49;5.70;99.90
53422;DHT22;39319;52.944;5.928;2024-01-06T02:18:15;5.60;99.90
53422;DHT22;39319;52.944;5.928;2024-01-06T02:20:43;5.60;99.90
53422;DHT22;39319;52.944;5.928;2024-01-06T02:23:09;5.60;99.90
53422;DHT22;39319;52.944;5.928;2024-01-06T02:25:35;5.30;99.90
53422;DHT22;39319;52.944;5.928;2024-01-06T02:28:01;5.80;99.90
53422;DHT22;39319;52.944;5.928;2024-01-06T02:30:27;5.30;99.90
53422;DHT22;39319;52.944;5.928;2024-01-06T02:32:52;5.40;99.90
53422;DHT22;39319;52.944;5.928;2024-01-06T02:35:19;5.40;99.90
53422;DHT22;39319;52.944;5.928;2024-01-06T02:37:45;5.30;99.90
53422;DHT22;39319;52.944;5.928;2024-01-06T02:40:11;5.40;99.90
53422;DHT22;39319;52.944;5.928;2024-01-06T02:42:37;5.40;99.90
53422;DHT22;39319;52.944;5.928;2024-01-06T02:45:03;5.60;99.90
53422;DHT22;39319;52.944;5.928;2024-01-06T02:47:29;5.60;99.90
53422;DHT22;39319;52.944;5.928;2024-01-06T02:49:54;5.50;99.90
53422;DHT22;39319;52.944;5.928;2024-01-06T02:52:20;5.40;99.90
53422;DHT22;39319;52.944;5.928;2024-01-06T02:54:48;5.70;99.90
53422;DHT22;39319;52.944;5.928;2024-01-06T02:57:13;5.40;99.90
53422;DHT22;39319;52.944;5.928;2024-01-06T02:59:39;5.60;99.90
53422;DHT22;39319;52.944;5.928;2024-01-06T03:02:05;5.50;99.90
53422;DHT22;39319;52.944;5.928;2024-01-06T03:04:31;5.50;99.90
53422;DHT22;39319;52.944;5.928;2024-01-06T03:06:56;5.70;99.90
53422;DHT22;39319;52.944;5.928;2024-01-06T03:09:22;5.60;99.90
53422;DHT22;39319;52.944;5.928;2024-01-06T03:11:48;5.40;99.90
53422;DHT22;39319;52.944;5.928;2024-01-06T03:14:14;5.50;99.90
53422;DHT22;39319;52.944;5.928;2024-01-06T03:16:39;5.50;99.90
53422;DHT22;39319;52.944;5.928;2024-01-06T03:19:06;5.20;99.90
53422;DHT22;39319;52.944;5.928;2024-01-06T03:21:31;5.20;99.90
53422;DHT22;39319;52.944;5.928;2024-01-06T03:23:57;5.60;99.90
53422;DHT22;39319;52.944;5.928;2024-01-06T03:26:23;4.90;99.90
53422;DHT22;39319;52.944;5.928;2024-01-06T03:28:49;5.10;99.90
53422;DHT22;39319;52.944;5.928;2024-01-06T03:31:15;5.30;99.90
53422;DHT22;39319;52.944;5.928;2024-01-06T03:33:43;5.10;99.90
53422;DHT22;39319;52.944;5.928;2024-01-06T03:36:09;5.20;99.90
53422;DHT22;39319;52.944;5.928;2024-01-06T03:38:37;5.30;99.90
53422;DHT22;39319;52.944;5.928;2024-01-06T03:41:05;5.30;99.90
53422;DHT22;39319;52.944;5.928;2024-01-06T03:43:31;6.00;99.90
53422;DHT22;39319;52.944;5.928;2024-01-06T03:45:56;5.40;99.90
53422;DHT22;39319;52.944;5.928;2024-01-06T03:48:23;5.40;99.90
53422;DHT22;39319;52.944;5.928;2024-01-06T03:50:49;5.50;99.90
53422;DHT22;39319;52.944;5.928;2024-01-06T03:53:17;5.30;99.90
53422;DHT22;39319;52.944;5.928;2024-01-06T03:55:43;5.30;99.90
53422;DHT22;39319;52.944;5.928;2024-01-06T03:58:08;5.30;99.90
53422;DHT22;39319;52.944;5.928;2024-01-06T04:00:34;5.40;99.90
53422;DHT22;39319;52.944;5.928;2024-01-06T04:03:00;5.20;99.90
53422;DHT22;39319;52.944;5.928;2024-01-06T04:05:26;5.70;99.90
53422;DHT22;39319;52.944;5.928;2024-01-06T04:07:51;5.60;99.90
53422;DHT22;39319;52.944;5.928;2024-01-06T04:10:17;4.20;99.90
53422;DHT22;39319;52.944;5.928;2024-01-06T04:12:43;5.40;99.90
53422;DHT22;39319;52.944;5.928;2024-01-06T04:15:09;5.00;99.90
53422;DHT22;39319;52.944;5.928;2024-01-06T04:17:34;5.50;99.90
53422;DHT22;39319;52.944;5.928;2024-01-06T04:20:00;5.20;99.90
53422;DHT22;39319;52.944;5.928;2024-01-06T04:22:26;5.50;99.90
53422;DHT22;39319;52.944;5.928;2024-01-06T04:24:52;5.30;99.90
53422;DHT22;39319;52.944;5.928;2024-01-06T04:27:17;5.40;99.90
53422;DHT22;39319;52.944;5.928;2024-01-06T04:29:43;5.30;99.90
53422;DHT22;39319;52.944;5.928;2024-01-06T04:32:09;5.40;99.90
53422;DHT22;39319;52.944;5.928;2024-01-06T04:34:35;5.20;99.90
53422;DHT22;39319;52.944;5.928;2024-01-06T04:37:01;5.30;99.90
53422;DHT22;39319;52.944;5.928;2024-01-06T04:39:26;5.40;99.90
53422;DHT22;39319;52.944;5.928;2024-01-06T04:41:52;5.10;99.90
53422;DHT22;39319;52.944;5.928;2024-01-06T04:44:21;5.50;99.90
53422;DHT22;39319;52.944;5.928;2024-01-06T04:46:47;5.50;99.90
53422;DHT22;39319;52.944;5.928;2024-01-06T04:49:13;5.30;99.90
53422;DHT22;39319;52.944;5.928;2024-01-06T04:51:39;5.30;99.90
53422;DHT22;39319;52.944;5.928;2024-01-06T04:54:04;5.40;99.90
53422;DHT22;39319;52.944;5.928;2024-01-06T04:56:30;5.10;99.90
53422;DHT22;39319;52.944;5.928;2024-01-06T04:58:56;5.20;99.90
53422;DHT22;39319;52.944;5.928;2024-01-06T05:01:23;5.30;99.90
53422;DHT22;39319;52.944;5.928;2024-01-06T05:03:49;5.50;99.90
53422;DHT22;39319;52.944;5.928;2024-01-06T05:06:15;5.40;99.90
53422;DHT22;39319;52.944;5.928;2024-01-06T05:08:41;5.50;99.90
53422;DHT22;39319;52.944;5.928;2024-01-06T05:11:10;5.30;99.90
53422;DHT22;39319;52.944;5.928;2024-01-06T05:13:36;5.20;99.90
53422;DHT22;39319;52.944;5.928;2024-01-06T05:16:02;5.30;99.90
53422;DHT22;39319;52.944;5.928;2024-01-06T05:18:31;5.50;99.90
53422;DHT22;39319;52.944;5.928;2024-01-06T05:20:57;5.30;99.90
53422;DHT22;39319;52.944;5.928;2024-01-06T05:23:22;5.40;99.90
53422;DHT22;39319;52.944;5.928;2024-01-06T05:25:48;5.30;99.90
53422;DHT22;39319;52.944;5.928;2024-01-06T05:28:14;5.60;99.90
53422;DHT22;39319;52.944;5.928;2024-01-06T05:30:42;5.30;99.90
53422;DHT22;39319;52.944;5.928;2024-01-06T05:33:11;5.40;99.90
53422;DHT22;39319;52.944;5.928;2024-01-06T05:35:38;5.40;99.90
53422;DHT22;39319;52.944;5.928;2024-01-06T05:38:04;5.30;99.90
53422;DHT22;39319;52.944;5.928;2024-01-06T05:40:30;5.30;99.90
53422;DHT22;39319;52.944;5.928;2024-01-06T05:42:56;4.70;99.90
53422;DHT22;39319;52.944;5.928;2024-01-06T05:45:22;5.30;99.90
53422;DHT22;39319;52.944;5.928;2024-01-06T05:47:48;5.40;99.90
53422;DHT22;39319;52.944;5.928;2024-01-06T05:50:16;5.40;99.90
53422;DHT22;39319;52.944;5.928;2024-01-06T05:52:42;5.10;99.90
53422;DHT22;39319;52.944;5.928;2024-01-06T05:55:08;5.30;99.90
53422;DHT22;39319;52.944;5.928;2024-01-06T05:57:35;5.00;99.90
53422;DHT22;39319;52.944;5.928;2024-01-06T06:00:00;5.40;99.90
53422;DHT22;39319;52.944;5.928;2024-01-06T06:02:28;5.50;99.90
53422;DHT22;39319;52.944;5.928;2024-01-06T06:04:54;5.40;99.90
53422;DHT22;39319;52.944;5.928;2024-01-06T06:07:20;5.50;99.90
53422;DHT22;39319;52.944;5.928;2024-01-06T06:09:46;5.20;99.90
53422;DHT22;39319;52.944;5.928;2024-01-06T06:12:14;5.50;99.90
53422;DHT22;39319;52.944;5.928;2024-01-06T06:14:40;5.10;99.90
53422;DHT22;39319;52.944;5.928;2024-01-06T06:17:07;5.10;99.90
53422;DHT22;39319;52.944;5.928;2024-01-06T06:19:33;5.50;99.90
53422;DHT22;39319;52.944;5.928;2024-01-06T06:22:01;5.30;99.90
53422;DHT22;39319;52.944;5.928;2024-01-06T06:24:27;5.20;99.90
53422;DHT22;39319;52.944;5.928;2024-01-06T06:26:53;5.30;99.90
53422;DHT22;39319;52.944;5.928;2024-01-06T06:29:18;5.30;99.90
53422;DHT22;39319;52.944;5.928;2024-01-06T06:31:46;5.40;99.90
53422;DHT22;39319;52.944;5.928;2024-01-06T06:34:12;5.20;99.90
53422;DHT22;39319;52.944;5.928;2024-01-06T06:36:38;5.20;99.90
53422;DHT22;39319;52.944;5.928;2024-01-06T06:39:04;5.20;99.90
53422;DHT22;39319;52.944;5.928;2024-01-06T06:41:30;5.50;99.90
53422;DHT22;39319;52.944;5.928;2024-01-06T06:43:57;5.70;99.90
53422;DHT22;39319;52.944;5.928;2024-01-06T06:46:25;5.40;99.90
53422;DHT22;39319;52.944;5.928;2024-01-06T06:48:51;5.30;99.90
53422;DHT22;39319;52.944;5.928;2024-01-06T06:51:17;5.40;99.90
53422;DHT22;39319;52.944;5.928;2024-01-06T06:53:42;5.60;99.90
53422;DHT22;39319;52.944;5.928;2024-01-06T06:56:08;5.50;99.90
53422;DHT22;39319;52.944;5.928;2024-01-06T06:58:34;5.40;99.90
53422;DHT22;39319;52.944;5.928;2024-01-06T07:01:00;5.50;99.90
53422;DHT22;39319;52.944;5.928;2024-01-06T07:03:26;5.30;99.90
53422;DHT22;39319;52.944;5.928;2024-01-06T07:05:52;5.30;99.90
53422;DHT22;39319;52.944;5.928;2024-01-06T07:08:18;5.30;99.90
53422;DHT22;39319;52.944;5.928;2024-01-06T07:10:44;5.30;99.90
53422;DHT22;39319;52.944;5.928;2024-01-06T07:13:10;5.50;99.90
53422;DHT22;39319;52.944;5.928;2024-01-06T07:15:36;5.50;99.90
53422;DHT22;39319;52.944;5.928;2024-01-06T07:18:01;5.20;99.90
53422;DHT22;39319;52.944;5.928;2024-01-06T07:20:27;5.30;99.90
53422;DHT22;39319;52.944;5.928;2024-01-06T07:22:55;5.50;99.90
53422;DHT22;39319;52.944;5.928;2024-01-06T07:25:21;5.50;99.90
53422;DHT22;39319;52.944;5.928;2024-01-06T07:27:47;5.40;99.90
53422;DHT22;39319;52.944;5.928;2024-01-06T07:30:12;5.40;99.90
53422;DHT22;39319;52.944;5.928;2024-01-06T07:32:38;5.30;99.90
53422;DHT22;39319;52.944;5.928;2024-01-06T07:35:04;5.60;99.90
53422;DHT22;39319;52.944;5.928;2024-01-06T07:37:30;5.50;99.90
53422;DHT22;39319;52.944;5.928;2024-01-06T07:39:56;5.40;99.90
53422;DHT22;39319;52.944;5.928;2024-01-06T07:42:21;5.50;99.90
53422;DHT22;39319;52.944;5.928;2024-01-06T07:44:47;5.40;99.90
53422;DHT22;39319;52.944;5.928;2024-01-06T07:47:13;5.50;99.90
53422;DHT22;39319;52.944;5.928;2024-01-06T07:49:40;5.60;99.90
53422;DHT22;39319;52.944;5.928;2024-01-06T07:52:06;5.60;99.90
53422;DHT22;39319;52.944;5.928;2024-01-06T07:54:31;5.40;99.90
53422;DHT22;39319;52.944;5.928;2024-01-06T07:56:57;5.40;99.90
53422;DHT22;39319;52.944;5.928;2024-01-06T07:59:23;5.50;99.90
53422;DHT22;39319;52.944;5.928;2024-01-06T08:01:49;5.30;99.90
53422;DHT22;39319;52.944;5.928;2024-01-06T08:04:15;5.40;99.90
53422;DHT22;39319;52.944;5.928;2024-01-06T08:06:41;5.50;99.90
53422;DHT22;39319;52.944;5.928;2024-01-06T08:09:07;5.60;99.90
53422;DHT22;39319;52.944;5.928;2024-01-06T08:11:33;5.60;99.90
53422;DHT22;39319;52.944;5.928;2024-01-06T08:13:59;5.40;99.90
53422;DHT22;39319;52.944;5.928;2024-01-06T08:16:25;5.40;99.90
53422;DHT22;39319;52.944;5.928;2024-01-06T08:18:51;5.60;99.90
53422;DHT22;39319;52.944;5.928;2024-01-06T08:21:16;5.70;99.90
53422;DHT22;39319;52.944;5.928;2024-01-06T08:23:47;5.60;99.90
53422;DHT22;39319;52.944;5.928;2024-01-06T08:26:13;5.40;99.90
53422;DHT22;39319;52.944;5.928;2024-01-06T08:28:40;5.70;99.90
53422;DHT22;39319;52.944;5.928;2024-01-06T08:31:06;5.50;99.90
53422;DHT22;39319;52.944;5.928;2024-01-06T08:33:32;5.60;99.90
53422;DHT22;39319;52.944;5.928;2024-01-06T08:35:57;5.30;99.90
53422;DHT22;39319;52.944;5.928;2024-01-06T08:38:23;5.40;99.90
53422;DHT22;39319;52.944;5.928;2024-01-06T08:40:49;5.40;99.90
53422;DHT22;39319;52.944;5.928;2024-01-06T08:43:16;5.70;99.90
53422;DHT22;39319;52.944;5.928;2024-01-06T08:45:41;5.40;99.90
53422;DHT22;39319;52.944;5.928;2024-01-06T08:48:07;5.70;99.90
53422;DHT22;39319;52.944;5.928;2024-01-06T08:50:33;5.60;99.90
53422;DHT22;39319;52.944;5.928;2024-01-06T08:52:59;5.70;99.90
53422;DHT22;39319;52.944;5.928;2024-01-06T08:55:24;5.90;99.90
53422;DHT22;39319;52.944;5.928;2024-01-06T08:57:51;5.70;99.90
53422;DHT22;39319;52.944;5.928;2024-01-06T09:00:17;5.40;99.90
53422;DHT22;39319;52.944;5.928;2024-01-06T09:02:43;5.50;99.90
53422;DHT22;39319;52.944;5.928;2024-01-06T09:05:08;6.10;99.90
53422;DHT22;39319;52.944;5.928;2024-01-06T09:07:34;5.50;99.90
53422;DHT22;39319;52.944;5.928;2024-01-06T09:10:00;5.70;99.90
53422;DHT22;39319;52.944;5.928;2024-01-06T09:12:25;5.60;99.90
53422;DHT22;39319;52.944;5.928;2024-01-06T09:14:51;5.60;99.90
53422;DHT22;39319;52.944;5.928;2024-01-06T09:17:17;4.60;99.90
53422;DHT22;39319;52.944;5.928;2024-01-06T09:19:42;5.50;99.90
53422;DHT22;39319;52.944;5.928;2024-01-06T09:22:08;5.50;99.90
53422;DHT22;39319;52.944;5.928;2024-01-06T09:24:34;5.50;99.90
53422;DHT22;39319;52.944;5.928;2024-01-06T09:26:59;5.80;99.90
53422;DHT22;39319;52.944;5.928;2024-01-06T09:29:25;5.70;99.90
53422;DHT22;39319;52.944;5.928;2024-01-06T09:31:51;5.60;99.90
53422;DHT22;39319;52.944;5.928;2024-01-06T09:34:17;5.70;99.90
53422;DHT22;39319;52.944;5.928;2024-01-06T09:36:45;5.70;99.90
53422;DHT22;39319;52.944;5.928;2024-01-06T09:39:11;5.70;99.90
53422;DHT22;39319;52.944;5.928;2024-01-06T09:41:37;5.80;99.90
53422;DHT22;39319;52.944;5.928;2024-01-06T09:44:03;5.60;99.90
53422;DHT22;39319;52.944;5.928;2024-01-06T09:46:29;5.60;99.90
53422;DHT22;39319;52.944;5.928;2024-01-06T09:48:55;5.70;99.90
53422;DHT22;39319;52.944;5.928;2024-01-06T09:51:22;5.80;99.90
53422;DHT22;39319;52.944;5.928;2024-01-06T09:53:49;5.90;99.90
53422;DHT22;39319;52.944;5.928;2024-01-06T09:56:18;5.60;99.90
53422;DHT22;39319;52.944;5.928;2024-01-06T09:58:44;5.70;99.90
53422;DHT22;39319;52.944;5.928;2024-01-06T10:01:11;5.80;99.90
53422;DHT22;39319;52.944;5.928;2024-01-06T10:03:38;5.80;99.90
53422;DHT22;39319;52.944;5.928;2024-01-06T10:06:04;5.80;99.90
53422;DHT22;39319;52.944;5.928;2024-01-06T10:08:30;6.00;99.90
53422;DHT22;39319;52.944;5.928;2024-01-06T10:11:00;5.90;99.90
53422;DHT22;39319;52.944;5.928;2024-01-06T10:13:26;5.80;99.90
53422;DHT22;39319;52.944;5.928;2024-01-06T10:15:56;5.80;99.90
53422;DHT22;39319;52.944;5.928;2024-01-06T10:18:22;5.70;99.90
53422;DHT22;39319;52.944;5.928;2024-01-06T10:20:47;5.70;99.90
53422;DHT22;39319;52.944;5.928;2024-01-06T10:23:13;5.90;99.90
53422;DHT22;39319;52.944;5.928;2024-01-06T10:25:39;5.70;99.90
53422;DHT22;39319;52.944;5.928;2024-01-06T10:28:11;5.90;99.90
53422;DHT22;39319;52.944;5.928;2024-01-06T10:30:40;5.90;99.90
53422;DHT22;39319;52.944;5.928;2024-01-06T10:33:10;5.80;99.90
53422;DHT22;39319;52.944;5.928;2024-01-06T10:35:36;5.80;99.90
53422;DHT22;39319;52.944;5.928;2024-01-06T10:38:02;5.70;99.90
53422;DHT22;39319;52.944;5.928;2024-01-06T10:40:29;5.60;99.90
53422;DHT22;39319;52.944;5.928;2024-01-06T10:42:55;5.70;99.90
53422;DHT22;39319;52.944;5.928;2024-01-06T10:45:24;5.90;99.90
53422;DHT22;39319;52.944;5.928;2024-01-06T10:47:51;5.90;99.90
53422;DHT22;39319;52.944;5.928;2024-01-06T10:50:18;5.70;99.90
53422;DHT22;39319;52.944;5.928;2024-01-06T10:52:44;5.60;99.90
53422;DHT22;39319;52.944;5.928;2024-01-06T10:55:10;5.90;99.90
53422;DHT22;39319;52.944;5.928;2024-01-06T10:57:38;5.80;99.90
53422;DHT22;39319;52.944;5.928;2024-01-06T11:00:04;6.00;99.90
53422;DHT22;39319;52.944;5.928;2024-01-06T11:02:35;5.80;99.90
53422;DHT22;39319;52.944;5.928;2024-01-06T11:05:01;6.00;99.90
53422;DHT22;39319;52.944;5.928;2024-01-06T11:07:27;5.70;99.90
53422;DHT22;39319;52.944;5.928;2024-01-06T11:09:57;5.80;99.90
53422;DHT22;39319;52.944;5.928;2024-01-06T11:12:23;5.80;99.90
53422;DHT22;39319;52.944;5.928;2024-01-06T11:14:51;6.00;99.90
53422;DHT22;39319;52.944;5.928;2024-01-06T11:17:53;5.90;99.90
53422;DHT22;39319;52.944;5.928;2024-01-06T11:20:20;5.80;99.90
53422;DHT22;39319;52.944;5.928;2024-01-06T11:22:49;5.70;99.90
53422;DHT22;39319;52.944;5.928;2024-01-06T11:25:20;5.70;99.90
53422;DHT22;39319;52.944;5.928;2024-01-06T11:27:48;5.90;99.90
53422;DHT22;39319;52.944;5.928;2024-01-06T11:30:24;6.00;99.90
53422;DHT22;39319;52.944;5.928;2024-01-06T11:32:53;5.70;99.90
53422;DHT22;39319;52.944;5.928;2024-01-06T11:35:21;5.60;99.90
53422;DHT22;39319;52.944;5.928;2024-01-06T11:43:10;5.70;99.80
53422;DHT22;39319;52.944;5.928;2024-01-06T11:45:38;5.90;99.60
53422;DHT22;39319;52.944;5.928;2024-01-06T11:48:10;5.60;99.90
53422;DHT22;39319;52.944;5.928;2024-01-06T11:50:38;5.60;99.90
53422;DHT22;39319;52.944;5.928;2024-01-06T11:53:06;5.80;99.90
53422;DHT22;39319;52.944;5.928;2024-01-06T11:55:33;5.80;99.90
53422;DHT22;39319;52.944;5.928;2024-01-06T11:58:03;5.90;99.90
53422;DHT22;39319;52.944;5.928;2024-01-06T12:00:30;5.90;99.40
53422;DHT22;39319;52.944;5.928;2024-01-06T12:03:00;5.80;99.80
53422;DHT22;39319;52.944;5.928;2024-01-06T12:05:27;5.80;99.90
53422;DHT22;39319;52.944;5.928;2024-01-06T12:08:00;6.00;99.90
53422;DHT22;39319;52.944;5.928;2024-01-06T12:10:28;5.80;99.40
53422;DHT22;39319;52.944;5.928;2024-01-06T12:13:01;6.20;99.90
53422;DHT22;39319;52.944;5.928;2024-01-06T12:15:29;6.40;99.90
53422;DHT22;39319;52.944;5.928;2024-01-06T12:17:55;5.90;99.40
53422;DHT22;39319;52.944;5.928;2024-01-06T12:20:22;5.80;99.30
53422;DHT22;39319;52.944;5.928;2024-01-06T12:22:51;6.00;99.30
53422;DHT22;39319;52.944;5.928;2024-01-06T12:25:18;5.90;99.30
53422;DHT22;39319;52.944;5.928;2024-01-06T12:27:44;6.00;99.40
53422;DHT22;39319;52.944;5.928;2024-01-06T12:30:14;5.80;99.00
53422;DHT22;39319;52.944;5.928;2024-01-06T12:32:45;5.90;99.00
53422;DHT22;39319;52.944;5.928;2024-01-06T12:35:11;6.00;99.10
53422;DHT22;39319;52.944;5.928;2024-01-06T12:37:38;5.90;99.10
53422;DHT22;39319;52.944;5.928;2024-01-06T12:40:04;6.50;99.20
53422;DHT22;39319;52.944;5.928;2024-01-06T12:42:30;5.90;98.90
53422;DHT22;39319;52.944;5.928;2024-01-06T12:44:56;5.90;98.90
53422;DHT22;39319;52.944;5.928;2024-01-06T12:47:21;6.00;99.20
53422;DHT22;39319;52.944;5.928;2024-01-06T12:49:48;6.10;99.30
53422;DHT22;39319;52.944;5.928;2024-01-06T12:52:14;6.20;98.70
53422;DHT22;39319;52.944;5.928;2024-01-06T12:54:39;6.40;98.60
53422;DHT22;39319;52.944;5.928;2024-01-06T12:57:07;6.10;98.80
53422;DHT22;39319;52.944;5.928;2024-01-06T12:59:32;6.10;98.80
53422;DHT22;39319;52.944;5.928;2024-01-06T13:01:58;6.10;98.70
53422;DHT22;39319;52.944;5.928;2024-01-06T13:04:24;6.20;98.70
53422;DHT22;39319;52.944;5.928;2024-01-06T13:06:50;6.20;98.80
53422;DHT22;39319;52.944;5.928;2024-01-06T13:09:16;6.20;98.40
53422;DHT22;39319;52.944;5.928;2024-01-06T13:11:42;6.20;98.60
53422;DHT22;39319;52.944;5.928;2024-01-06T13:14:08;6.00;98.50
53422;DHT22;39319;52.944;5.928;2024-01-06T13:16:34;6.20;98.60
53422;DHT22;39319;52.944;5.928;2024-01-06T13:19:01;5.90;98.40
53422;DHT22;39319;52.944;5.928;2024-01-06T13:21:27;6.00;98.50
53422;DHT22;39319;52.944;5.928;2024-01-06T13:23:54;6.00;98.70
53422;DHT22;39319;52.944;5.928;2024-01-06T13:26:26;5.90;98.80
53422;DHT22;39319;52.944;5.928;2024-01-06T13:28:53;6.20;98.80
53422;DHT22;39319;52.944;5.928;2024-01-06T13:31:19;6.20;98.60
53422;DHT22;39319;52.944;5.928;2024-01-06T13:33:46;5.80;98.80
53422;DHT22;39319;52.944;5.928;2024-01-06T13:36:12;6.00;99.00
53422;DHT22;39319;52.944;5.928;2024-01-06T13:38:38;6.00;99.10
53422;DHT22;39319;52.944;5.928;2024-01-06T13:41:04;6.20;98.90
53422;DHT22;39319;52.944;5.928;2024-01-06T13:43:30;6.20;98.70
53422;DHT22;39319;52.944;5.928;2024-01-06T13:45:57;6.10;99.00
53422;DHT22;39319;52.944;5.928;2024-01-06T13:48:23;6.30;99.10
53422;DHT22;39319;52.944;5.928;2024-01-06T13:50:51;5.90;99.00
53422;DHT22;39319;52.944;5.928;2024-01-06T13:53:17;5.80;98.80
53422;DHT22;39319;52.944;5.928;2024-01-06T13:55:43;5.90;98.90
53422;DHT22;39319;52.944;5.928;2024-01-06T13:58:10;6.00;99.00
53422;DHT22;39319;52.944;5.928;2024-01-06T14:00:36;5.90;98.90
53422;DHT22;39319;52.944;5.928;2024-01-06T14:03:02;5.80;98.90
53422;DHT22;39319;52.944;5.928;2024-01-06T14:05:28;5.80;98.80
53422;DHT22;39319;52.944;5.928;2024-01-06T14:07:54;5.70;98.80
53422;DHT22;39319;52.944;5.928;2024-01-06T14:10:21;6.00;98.80
53422;DHT22;39319;52.944;5.928;2024-01-06T14:12:46;5.90;98.70
53422;DHT22;39319;52.944;5.928;2024-01-06T14:15:12;5.80;98.70
53422;DHT22;39319;52.944;5.928;2024-01-06T14:17:38;5.90;98.70
53422;DHT22;39319;52.944;5.928;2024-01-06T14:20:07;5.70;98.50
53422;DHT22;39319;52.944;5.928;2024-01-06T14:22:34;5.80;98.60
53422;DHT22;39319;52.944;5.928;2024-01-06T14:25:00;5.80;98.40
53422;DHT22;39319;52.944;5.928;2024-01-06T14:27:26;5.90;98.70
53422;DHT22;39319;52.944;5.928;2024-01-06T14:29:52;5.70;98.60
53422;DHT22;39319;52.944;5.928;2024-01-06T14:32:21;5.60;98.60
53422;DHT22;39319;52.944;5.928;2024-01-06T14:34:49;5.50;98.50
53422;DHT22;39319;52.944;5.928;2024-01-06T14:37:16;5.80;98.60
53422;DHT22;39319;52.944;5.928;2024-01-06T14:39:42;6.00;98.70
53422;DHT22;39319;52.944;5.928;2024-01-06T14:42:07;5.50;98.40
53422;DHT22;39319;52.944;5.928;2024-01-06T14:44:33;5.50;98.50
53422;DHT22;39319;52.944;5.928;2024-01-06T14:46:59;5.30;98.50
53422;DHT22;39319;52.944;5.928;2024-01-06T14:49:25;5.30;98.50
53422;DHT22;39319;52.944;5.928;2024-01-06T14:51:50;5.70;98.90
53422;DHT22;39319;52.944;5.928;2024-01-06T14:54:16;5.60;99.00
53422;DHT22;39319;52.944;5.928;2024-01-06T14:56:42;5.70;98.90
53422;DHT22;39319;52.944;5.928;2024-01-06T14:59:08;5.70;98.80
53422;DHT22;39319;52.944;5.928;2024-01-06T15:01:34;5.60;98.70
53422;DHT22;39319;52.944;5.928;2024-01-06T15:04:02;5.70;98.50
53422;DHT22;39319;52.944;5.928;2024-01-06T15:06:28;5.30;98.30
53422;DHT22;39319;52.944;5.928;2024-01-06T15:08:54;5.70;98.70
53422;DHT22;39319;52.944;5.928;2024-01-06T15:11:22;5.60;98.30
53422;DHT22;39319;52.944;5.928;2024-01-06T15:13:48;5.30;98.30
53422;DHT22;39319;52.944;5.928;2024-01-06T15:16:13;5.60;98.50
53422;DHT22;39319;52.944;5.928;2024-01-06T15:18:39;5.50;98.70
53422;DHT22;39319;52.944;5.928;2024-01-06T15:21:05;5.40;98.80
53422;DHT22;39319;52.944;5.928;2024-01-06T15:23:30;5.40;98.70
53422;DHT22;39319;52.944;5.928;2024-01-06T15:25:56;5.30;98.50
53422;DHT22;39319;52.944;5.928;2024-01-06T15:28:22;5.50;98.60
53422;DHT22;39319;52.944;5.928;2024-01-06T15:30:47;5.50;98.40
53422;DHT22;39319;52.944;5.928;2024-01-06T15:33:13;5.60;98.60
53422;DHT22;39319;52.944;5.928;2024-01-06T15:35:42;5.60;98.20
53422;DHT22;39319;52.944;5.928;2024-01-06T15:38:08;5.30;98.60
53422;DHT22;39319;52.944;5.928;2024-01-06T15:40:34;5.20;98.10
53422;DHT22;39319;52.944;5.928;2024-01-06T15:42:59;5.20;98.30
53422;DHT22;39319;52.944;5.928;2024-01-06T15:45:25;5.40;98.30